sensor_id;sensor_type;location;lat;lon;timestamp;P1;durP1;ratioP1;P2;durP2;ratioP2
33926;SDS011;20485;50.992;5.550;2023-05-18T00:00:34;16.85;;;3.95;;
33926;SDS011;20485;50.992;5.550;2023-05-18T00:03:00;16.98;;;3.28;;
33926;SDS011;20485;50.992;5.550;2023-05-18T00:05:27;15.32;;;3.90;;
33926;SDS011;20485;50.992;5.550;2023-05-18T00:07:58;19.00;;;4.38;;
33926;SDS011;20485;50.992;5.550;2023-05-18T00:10:24;14.18;;;3.83;;
33926;SDS011;20485;50.992;5.550;2023-05-18T00:12:50;10.23;;;3.70;;
33926;SDS011;20485;50.992;5.550;2023-05-18T00:15:15;12.52;;;3.75;;
33926;SDS011;20485;50.992;5.550;2023-05-18T00:17:41;18.27;;;4.43;;
33926;SDS011;20485;50.992;5.550;2023-05-18T00:20:07;16.60;;;3.90;;
33926;SDS011;20485;50.992;5.550;2023-05-18T00:22:33;21.52;;;5.00;;
33926;SDS011;20485;50.992;5.550;2023-05-18T00:25:00;21.00;;;4.07;;
33926;SDS011;20485;50.992;5.550;2023-05-18T00:27:25;18.63;;;3.95;;
33926;SDS011;20485;50.992;5.550;2023-05-18T00:29:51;10.70;;;3.40;;
33926;SDS011;20485;50.992;5.550;2023-05-18T00:32:17;13.82;;;3.70;;
33926;SDS011;20485;50.992;5.550;2023-05-18T00:34:42;11.10;;;3.75;;
33926;SDS011;20485;50.992;5.550;2023-05-18T00:37:08;15.73;;;3.65;;
33926;SDS011;20485;50.992;5.550;2023-05-18T00:39:33;14.77;;;3.53;;
33926;SDS011;20485;50.992;5.550;2023-05-18T00:41:59;15.02;;;4.13;;
33926;SDS011;20485;50.992;5.550;2023-05-18T00:44:25;15.25;;;3.60;;
33926;SDS011;20485;50.992;5.550;2023-05-18T00:46:50;12.88;;;3.75;;
33926;SDS011;20485;50.992;5.550;2023-05-18T00:49:16;18.58;;;4.35;;
33926;SDS011;20485;50.992;5.550;2023-05-18T00:51:42;15.82;;;3.65;;
33926;SDS011;20485;50.992;5.550;2023-05-18T00:54:09;9.40;;;4.65;;
33926;SDS011;20485;50.992;5.550;2023-05-18T00:56:35;12.43;;;3.50;;
33926;SDS011;20485;50.992;5.550;2023-05-18T00:59:05;15.57;;;4.07;;
33926;SDS011;20485;50.992;5.550;2023-05-18T01:01:33;7.93;;;3.67;;
33926;SDS011;20485;50.992;5.550;2023-05-18T01:04:00;21.27;;;4.30;;
33926;SDS011;20485;50.992;5.550;2023-05-18T01:06:26;15.40;;;4.18;;
33926;SDS011;20485;50.992;5.550;2023-05-18T01:08:56;16.95;;;3.70;;
33926;SDS011;20485;50.992;5.550;2023-05-18T01:14:37;19.40;;;4.07;;
33926;SDS011;20485;50.992;5.550;2023-05-18T01:25:42;15.18;;;4.03;;
33926;SDS011;20485;50.992;5.550;2023-05-18T01:28:16;22.75;;;4.32;;
33926;SDS011;20485;50.992;5.550;2023-05-18T01:30:44;11.63;;;4.05;;
33926;SDS011;20485;50.992;5.550;2023-05-18T01:33:11;13.90;;;3.97;;
33926;SDS011;20485;50.992;5.550;2023-05-18T01:35:37;16.05;;;4.20;;
33926;SDS011;20485;50.992;5.550;2023-05-18T01:38:22;11.70;;;3.97;;
33926;SDS011;20485;50.992;5.550;2023-05-18T01:40:59;19.77;;;4.43;;
33926;SDS011;20485;50.992;5.550;2023-05-18T01:43:37;15.85;;;4.45;;
33926;SDS011;20485;50.992;5.550;2023-05-18T01:46:20;12.05;;;3.92;;
33926;SDS011;20485;50.992;5.550;2023-05-18T01:49:16;17.80;;;4.00;;
33926;SDS011;20485;50.992;5.550;2023-05-18T01:51:43;13.75;;;3.92;;
33926;SDS011;20485;50.992;5.550;2023-05-18T01:54:11;9.82;;;3.85;;
33926;SDS011;20485;50.992;5.550;2023-05-18T01:56:39;13.57;;;3.88;;
33926;SDS011;20485;50.992;5.550;2023-05-18T01:59:06;16.63;;;5.03;;
33926;SDS011;20485;50.992;5.550;2023-05-18T02:01:32;17.00;;;4.50;;
33926;SDS011;20485;50.992;5.550;2023-05-18T02:03:58;13.02;;;4.20;;
33926;SDS011;20485;50.992;5.550;2023-05-18T02:06:23;12.80;;;4.53;;
33926;SDS011;20485;50.992;5.550;2023-05-18T02:08:49;22.63;;;4.80;;
33926;SDS011;20485;50.992;5.550;2023-05-18T02:11:15;15.60;;;4.25;;
33926;SDS011;20485;50.992;5.550;2023-05-18T02:13:41;21.92;;;4.55;;
33926;SDS011;20485;50.992;5.550;2023-05-18T02:16:07;19.02;;;4.80;;
33926;SDS011;20485;50.992;5.550;2023-05-18T02:18:32;19.77;;;4.05;;
33926;SDS011;20485;50.992;5.550;2023-05-18T02:21:00;25.67;;;4.68;;
33926;SDS011;20485;50.992;5.550;2023-05-18T02:23:26;9.43;;;4.07;;
33926;SDS011;20485;50.992;5.550;2023-05-18T02:25:52;17.75;;;3.97;;
33926;SDS011;20485;50.992;5.550;2023-05-18T02:28:20;11.48;;;4.07;;
33926;SDS011;20485;50.992;5.550;2023-05-18T02:30:47;17.17;;;4.38;;
33926;SDS011;20485;50.992;5.550;2023-05-18T02:33:13;23.05;;;4.85;;
33926;SDS011;20485;50.992;5.550;2023-05-18T02:35:38;12.35;;;4.15;;
33926;SDS011;20485;50.992;5.550;2023-05-18T02:38:05;15.30;;;4.60;;
33926;SDS011;20485;50.992;5.550;2023-05-18T02:40:31;13.05;;;4.28;;
33926;SDS011;20485;50.992;5.550;2023-05-18T02:42:57;17.20;;;4.10;;
33926;SDS011;20485;50.992;5.550;2023-05-18T02:45:24;20.17;;;5.10;;
33926;SDS011;20485;50.992;5.550;2023-05-18T02:47:49;14.80;;;4.30;;
33926;SDS011;20485;50.992;5.550;2023-05-18T02:50:15;12.32;;;4.40;;
33926;SDS011;20485;50.992;5.550;2023-05-18T02:52:41;26.17;;;4.95;;
33926;SDS011;20485;50.992;5.550;2023-05-18T02:55:09;16.70;;;4.40;;
33926;SDS011;20485;50.992;5.550;2023-05-18T02:57:35;16.23;;;4.45;;
33926;SDS011;20485;50.992;5.550;2023-05-18T03:00:00;14.90;;;4.75;;
33926;SDS011;20485;50.992;5.550;2023-05-18T03:02:33;21.93;;;5.17;;
33926;SDS011;20485;50.992;5.550;2023-05-18T03:05:02;17.83;;;4.72;;
33926;SDS011;20485;50.992;5.550;2023-05-18T03:07:29;13.93;;;4.68;;
33926;SDS011;20485;50.992;5.550;2023-05-18T03:09:57;17.02;;;4.93;;
33926;SDS011;20485;50.992;5.550;2023-05-18T03:12:22;14.35;;;4.18;;
33926;SDS011;20485;50.992;5.550;2023-05-18T03:14:48;14.07;;;4.00;;
33926;SDS011;20485;50.992;5.550;2023-05-18T03:17:13;17.55;;;4.60;;
33926;SDS011;20485;50.992;5.550;2023-05-18T03:19:39;23.73;;;5.35;;
33926;SDS011;20485;50.992;5.550;2023-05-18T03:22:05;16.02;;;5.03;;
33926;SDS011;20485;50.992;5.550;2023-05-18T03:24:30;16.17;;;4.60;;
33926;SDS011;20485;50.992;5.550;2023-05-18T03:27:04;19.90;;;4.88;;
33926;SDS011;20485;50.992;5.550;2023-05-18T03:29:32;10.65;;;4.50;;
33926;SDS011;20485;50.992;5.550;2023-05-18T03:31:58;13.45;;;4.70;;
33926;SDS011;20485;50.992;5.550;2023-05-18T03:34:24;17.63;;;4.57;;
33926;SDS011;20485;50.992;5.550;2023-05-18T03:36:50;16.25;;;4.68;;
33926;SDS011;20485;50.992;5.550;2023-05-18T03:39:16;19.63;;;4.32;;
33926;SDS011;20485;50.992;5.550;2023-05-18T03:41:42;23.15;;;6.32;;
33926;SDS011;20485;50.992;5.550;2023-05-18T03:44:07;18.10;;;4.63;;
33926;SDS011;20485;50.992;5.550;2023-05-18T03:46:33;18.63;;;4.82;;
33926;SDS011;20485;50.992;5.550;2023-05-18T03:48:59;24.73;;;5.10;;
33926;SDS011;20485;50.992;5.550;2023-05-18T03:51:25;20.38;;;5.22;;
33926;SDS011;20485;50.992;5.550;2023-05-18T03:53:53;11.60;;;5.00;;
33926;SDS011;20485;50.992;5.550;2023-05-18T03:56:18;24.85;;;5.60;;
33926;SDS011;20485;50.992;5.550;2023-05-18T03:58:44;19.80;;;5.00;;
33926;SDS011;20485;50.992;5.550;2023-05-18T04:01:10;18.45;;;5.07;;
33926;SDS011;20485;50.992;5.550;2023-05-18T04:03:36;19.83;;;5.22;;
33926;SDS011;20485;50.992;5.550;2023-05-18T04:06:01;14.73;;;4.60;;
33926;SDS011;20485;50.992;5.550;2023-05-18T04:08:27;18.55;;;4.93;;
33926;SDS011;20485;50.992;5.550;2023-05-18T04:10:54;27.45;;;5.50;;
33926;SDS011;20485;50.992;5.550;2023-05-18T04:13:20;19.75;;;4.70;;
33926;SDS011;20485;50.992;5.550;2023-05-18T04:15:45;15.18;;;5.15;;
33926;SDS011;20485;50.992;5.550;2023-05-18T04:18:12;21.52;;;5.35;;
33926;SDS011;20485;50.992;5.550;2023-05-18T04:20:38;16.63;;;4.63;;
33926;SDS011;20485;50.992;5.550;2023-05-18T04:23:06;21.63;;;5.35;;
33926;SDS011;20485;50.992;5.550;2023-05-18T04:25:34;19.25;;;5.22;;
33926;SDS011;20485;50.992;5.550;2023-05-18T04:27:59;14.13;;;4.43;;
33926;SDS011;20485;50.992;5.550;2023-05-18T04:30:26;24.25;;;5.70;;
33926;SDS011;20485;50.992;5.550;2023-05-18T04:32:53;12.85;;;5.15;;
33926;SDS011;20485;50.992;5.550;2023-05-18T04:35:22;18.67;;;5.13;;
33926;SDS011;20485;50.992;5.550;2023-05-18T04:37:49;18.65;;;5.60;;
33926;SDS011;20485;50.992;5.550;2023-05-18T04:40:15;17.73;;;4.57;;
33926;SDS011;20485;50.992;5.550;2023-05-18T04:42:44;15.35;;;4.50;;
33926;SDS011;20485;50.992;5.550;2023-05-18T04:45:15;15.88;;;4.55;;
33926;SDS011;20485;50.992;5.550;2023-05-18T04:47:46;18.55;;;5.25;;
33926;SDS011;20485;50.992;5.550;2023-05-18T04:50:17;20.83;;;5.38;;
33926;SDS011;20485;50.992;5.550;2023-05-18T04:52:44;14.52;;;4.63;;
33926;SDS011;20485;50.992;5.550;2023-05-18T04:55:17;20.75;;;4.85;;
33926;SDS011;20485;50.992;5.550;2023-05-18T04:57:50;14.02;;;4.65;;
33926;SDS011;20485;50.992;5.550;2023-05-18T05:00:20;15.07;;;3.95;;
33926;SDS011;20485;50.992;5.550;2023-05-18T05:02:48;20.17;;;5.03;;
33926;SDS011;20485;50.992;5.550;2023-05-18T05:05:14;12.30;;;3.80;;
33926;SDS011;20485;50.992;5.550;2023-05-18T05:07:39;12.50;;;4.13;;
33926;SDS011;20485;50.992;5.550;2023-05-18T05:10:05;17.10;;;4.40;;
33926;SDS011;20485;50.992;5.550;2023-05-18T05:12:31;12.52;;;3.42;;
33926;SDS011;20485;50.992;5.550;2023-05-18T05:14:59;14.77;;;3.75;;
33926;SDS011;20485;50.992;5.550;2023-05-18T05:17:25;10.68;;;4.05;;
33926;SDS011;20485;50.992;5.550;2023-05-18T05:19:50;11.40;;;3.50;;
33926;SDS011;20485;50.992;5.550;2023-05-18T05:22:16;12.02;;;4.45;;
33926;SDS011;20485;50.992;5.550;2023-05-18T05:24:43;15.90;;;4.30;;
33926;SDS011;20485;50.992;5.550;2023-05-18T05:27:09;13.93;;;4.28;;
33926;SDS011;20485;50.992;5.550;2023-05-18T05:29:35;18.05;;;4.55;;
33926;SDS011;20485;50.992;5.550;2023-05-18T05:32:01;21.10;;;4.65;;
33926;SDS011;20485;50.992;5.550;2023-05-18T05:34:26;17.70;;;5.05;;
33926;SDS011;20485;50.992;5.550;2023-05-18T05:36:52;15.20;;;4.28;;
33926;SDS011;20485;50.992;5.550;2023-05-18T05:39:17;15.95;;;4.50;;
33926;SDS011;20485;50.992;5.550;2023-05-18T05:41:43;12.70;;;4.43;;
33926;SDS011;20485;50.992;5.550;2023-05-18T05:44:09;18.52;;;4.75;;
33926;SDS011;20485;50.992;5.550;2023-05-18T05:46:34;18.77;;;5.75;;
33926;SDS011;20485;50.992;5.550;2023-05-18T05:49:00;18.42;;;4.80;;
33926;SDS011;20485;50.992;5.550;2023-05-18T05:51:26;17.48;;;4.75;;
33926;SDS011;20485;50.992;5.550;2023-05-18T05:53:51;23.42;;;5.72;;
33926;SDS011;20485;50.992;5.550;2023-05-18T05:56:17;15.73;;;4.63;;
33926;SDS011;20485;50.992;5.550;2023-05-18T05:58:43;16.20;;;4.75;;
33926;SDS011;20485;50.992;5.550;2023-05-18T06:01:08;16.02;;;5.35;;
33926;SDS011;20485;50.992;5.550;2023-05-18T06:03:34;24.35;;;6.18;;
33926;SDS011;20485;50.992;5.550;2023-05-18T06:06:01;16.45;;;5.40;;
33926;SDS011;20485;50.992;5.550;2023-05-18T06:08:26;15.45;;;5.28;;
33926;SDS011;20485;50.992;5.550;2023-05-18T06:10:53;15.38;;;5.35;;
33926;SDS011;20485;50.992;5.550;2023-05-18T06:13:19;15.00;;;5.10;;
33926;SDS011;20485;50.992;5.550;2023-05-18T06:15:45;21.77;;;5.88;;
33926;SDS011;20485;50.992;5.550;2023-05-18T06:18:11;15.60;;;5.00;;
33926;SDS011;20485;50.992;5.550;2023-05-18T06:20:37;14.55;;;4.82;;
33926;SDS011;20485;50.992;5.550;2023-05-18T06:23:03;15.35;;;4.88;;
33926;SDS011;20485;50.992;5.550;2023-05-18T06:25:28;17.60;;;4.97;;
33926;SDS011;20485;50.992;5.550;2023-05-18T06:27:54;16.33;;;5.20;;
33926;SDS011;20485;50.992;5.550;2023-05-18T06:30:20;11.63;;;5.53;;
33926;SDS011;20485;50.992;5.550;2023-05-18T06:32:46;12.52;;;5.05;;
33926;SDS011;20485;50.992;5.550;2023-05-18T06:35:11;20.38;;;5.25;;
33926;SDS011;20485;50.992;5.550;2023-05-18T06:37:37;15.27;;;4.70;;
33926;SDS011;20485;50.992;5.550;2023-05-18T06:40:04;12.63;;;4.88;;
33926;SDS011;20485;50.992;5.550;2023-05-18T06:42:31;21.00;;;5.32;;
33926;SDS011;20485;50.992;5.550;2023-05-18T06:44:57;20.38;;;5.20;;
33926;SDS011;20485;50.992;5.550;2023-05-18T06:47:23;15.95;;;5.00;;
33926;SDS011;20485;50.992;5.550;2023-05-18T06:49:49;26.27;;;6.85;;
33926;SDS011;20485;50.992;5.550;2023-05-18T06:52:15;13.13;;;4.63;;
33926;SDS011;20485;50.992;5.550;2023-05-18T06:54:41;24.23;;;5.88;;
33926;SDS011;20485;50.992;5.550;2023-05-18T06:57:07;26.88;;;5.55;;
33926;SDS011;20485;50.992;5.550;2023-05-18T06:59:32;15.25;;;5.40;;
33926;SDS011;20485;50.992;5.550;2023-05-18T07:02:02;18.73;;;5.57;;
33926;SDS011;20485;50.992;5.550;2023-05-18T07:04:28;10.15;;;4.30;;
33926;SDS011;20485;50.992;5.550;2023-05-18T07:06:54;18.42;;;5.03;;
33926;SDS011;20485;50.992;5.550;2023-05-18T07:09:21;18.08;;;5.40;;
33926;SDS011;20485;50.992;5.550;2023-05-18T07:11:47;16.10;;;5.07;;
33926;SDS011;20485;50.992;5.550;2023-05-18T07:14:13;23.58;;;5.93;;
33926;SDS011;20485;50.992;5.550;2023-05-18T07:16:40;21.10;;;5.35;;
33926;SDS011;20485;50.992;5.550;2023-05-18T07:19:08;17.33;;;5.05;;
33926;SDS011;20485;50.992;5.550;2023-05-18T07:21:35;15.15;;;5.57;;
33926;SDS011;20485;50.992;5.550;2023-05-18T07:24:02;18.77;;;5.97;;
33926;SDS011;20485;50.992;5.550;2023-05-18T07:26:28;16.30;;;5.13;;
33926;SDS011;20485;50.992;5.550;2023-05-18T07:28:54;20.50;;;5.43;;
33926;SDS011;20485;50.992;5.550;2023-05-18T07:31:20;14.88;;;5.68;;
33926;SDS011;20485;50.992;5.550;2023-05-18T07:33:47;19.02;;;5.80;;
33926;SDS011;20485;50.992;5.550;2023-05-18T07:36:13;22.60;;;5.82;;
33926;SDS011;20485;50.992;5.550;2023-05-18T07:38:39;19.70;;;5.60;;
33926;SDS011;20485;50.992;5.550;2023-05-18T07:41:05;13.50;;;5.35;;
33926;SDS011;20485;50.992;5.550;2023-05-18T07:43:31;19.50;;;5.05;;
33926;SDS011;20485;50.992;5.550;2023-05-18T07:45:57;17.63;;;5.72;;
33926;SDS011;20485;50.992;5.550;2023-05-18T07:48:22;16.23;;;5.13;;
33926;SDS011;20485;50.992;5.550;2023-05-18T07:50:48;12.68;;;5.07;;
33926;SDS011;20485;50.992;5.550;2023-05-18T07:53:14;21.85;;;4.95;;
33926;SDS011;20485;50.992;5.550;2023-05-18T07:55:45;12.05;;;4.70;;
33926;SDS011;20485;50.992;5.550;2023-05-18T07:58:11;17.38;;;4.57;;
33926;SDS011;20485;50.992;5.550;2023-05-18T08:00:38;18.92;;;5.10;;
33926;SDS011;20485;50.992;5.550;2023-05-18T08:03:04;15.50;;;4.90;;
33926;SDS011;20485;50.992;5.550;2023-05-18T08:05:30;21.05;;;4.57;;
33926;SDS011;20485;50.992;5.550;2023-05-18T08:07:56;15.77;;;4.35;;
33926;SDS011;20485;50.992;5.550;2023-05-18T08:10:22;23.92;;;4.82;;
33926;SDS011;20485;50.992;5.550;2023-05-18T08:12:48;12.85;;;4.20;;
33926;SDS011;20485;50.992;5.550;2023-05-18T08:15:15;20.02;;;4.13;;
33926;SDS011;20485;50.992;5.550;2023-05-18T08:17:41;14.00;;;4.40;;
33926;SDS011;20485;50.992;5.550;2023-05-18T08:20:06;14.90;;;4.80;;
33926;SDS011;20485;50.992;5.550;2023-05-18T08:22:34;15.23;;;4.30;;
33926;SDS011;20485;50.992;5.550;2023-05-18T08:25:00;14.18;;;4.43;;
33926;SDS011;20485;50.992;5.550;2023-05-18T08:27:27;19.20;;;4.90;;
33926;SDS011;20485;50.992;5.550;2023-05-18T08:29:53;10.80;;;4.28;;
33926;SDS011;20485;50.992;5.550;2023-05-18T08:32:19;11.57;;;4.07;;
33926;SDS011;20485;50.992;5.550;2023-05-18T08:34:45;16.55;;;4.15;;
33926;SDS011;20485;50.992;5.550;2023-05-18T08:37:11;15.40;;;4.63;;
33926;SDS011;20485;50.992;5.550;2023-05-18T08:39:36;22.20;;;5.20;;
33926;SDS011;20485;50.992;5.550;2023-05-18T08:44:43;19.05;;;5.07;;
33926;SDS011;20485;50.992;5.550;2023-05-18T08:47:16;14.27;;;3.35;;
33926;SDS011;20485;50.992;5.550;2023-05-18T08:49:42;20.38;;;4.70;;
33926;SDS011;20485;50.992;5.550;2023-05-18T08:52:10;18.85;;;4.00;;
33926;SDS011;20485;50.992;5.550;2023-05-18T08:54:41;12.65;;;4.13;;
33926;SDS011;20485;50.992;5.550;2023-05-18T08:57:08;11.43;;;3.92;;
33926;SDS011;20485;50.992;5.550;2023-05-18T08:59:35;12.15;;;3.75;;
33926;SDS011;20485;50.992;5.550;2023-05-18T09:02:24;14.32;;;3.13;;
33926;SDS011;20485;50.992;5.550;2023-05-18T09:04:51;13.32;;;3.40;;
33926;SDS011;20485;50.992;5.550;2023-05-18T09:07:19;14.55;;;3.05;;
33926;SDS011;20485;50.992;5.550;2023-05-18T09:09:45;11.18;;;3.25;;
33926;SDS011;20485;50.992;5.550;2023-05-18T09:12:12;14.13;;;3.60;;
33926;SDS011;20485;50.992;5.550;2023-05-18T09:14:40;21.67;;;4.07;;
33926;SDS011;20485;50.992;5.550;2023-05-18T09:17:07;15.57;;;4.22;;
33926;SDS011;20485;50.992;5.550;2023-05-18T09:19:33;21.88;;;4.22;;
33926;SDS011;20485;50.992;5.550;2023-05-18T09:21:59;13.27;;;4.03;;
33926;SDS011;20485;50.992;5.550;2023-05-18T09:24:25;16.75;;;4.07;;
33926;SDS011;20485;50.992;5.550;2023-05-18T09:26:51;20.42;;;4.88;;
33926;SDS011;20485;50.992;5.550;2023-05-18T09:29:20;16.65;;;4.53;;
33926;SDS011;20485;50.992;5.550;2023-05-18T09:31:48;14.38;;;5.07;;
33926;SDS011;20485;50.992;5.550;2023-05-18T09:34:14;14.93;;;4.95;;
33926;SDS011;20485;50.992;5.550;2023-05-18T09:36:40;19.58;;;5.28;;
33926;SDS011;20485;50.992;5.550;2023-05-18T09:39:10;21.10;;;5.20;;
33926;SDS011;20485;50.992;5.550;2023-05-18T09:41:39;16.73;;;4.82;;
33926;SDS011;20485;50.992;5.550;2023-05-18T09:44:08;16.45;;;4.70;;
33926;SDS011;20485;50.992;5.550;2023-05-18T09:46:36;17.55;;;4.43;;
33926;SDS011;20485;50.992;5.550;2023-05-18T09:49:03;10.65;;;3.75;;
33926;SDS011;20485;50.992;5.550;2023-05-18T09:51:30;15.50;;;4.57;;
33926;SDS011;20485;50.992;5.550;2023-05-18T09:53:59;11.68;;;4.20;;
33926;SDS011;20485;50.992;5.550;2023-05-18T09:56:28;15.45;;;4.78;;
33926;SDS011;20485;50.992;5.550;2023-05-18T09:58:55;17.88;;;4.07;;
33926;SDS011;20485;50.992;5.550;2023-05-18T10:01:22;13.35;;;4.13;;
33926;SDS011;20485;50.992;5.550;2023-05-18T10:03:48;15.43;;;3.65;;
33926;SDS011;20485;50.992;5.550;2023-05-18T10:06:14;12.63;;;4.30;;
33926;SDS011;20485;50.992;5.550;2023-05-18T10:08:43;12.23;;;3.97;;
33926;SDS011;20485;50.992;5.550;2023-05-18T10:11:10;13.40;;;3.95;;
33926;SDS011;20485;50.992;5.550;2023-05-18T10:13:36;12.20;;;3.53;;
33926;SDS011;20485;50.992;5.550;2023-05-18T10:16:04;12.25;;;3.90;;
33926;SDS011;20485;50.992;5.550;2023-05-18T10:18:33;12.07;;;3.78;;
33926;SDS011;20485;50.992;5.550;2023-05-18T10:21:00;12.40;;;4.18;;
33926;SDS011;20485;50.992;5.550;2023-05-18T10:23:31;13.80;;;4.13;;
33926;SDS011;20485;50.992;5.550;2023-05-18T10:25:59;13.40;;;4.18;;
33926;SDS011;20485;50.992;5.550;2023-05-18T10:28:41;12.35;;;4.15;;
33926;SDS011;20485;50.992;5.550;2023-05-18T10:31:08;11.60;;;4.25;;
33926;SDS011;20485;50.992;5.550;2023-05-18T10:33:37;16.65;;;4.13;;
33926;SDS011;20485;50.992;5.550;2023-05-18T10:36:03;11.85;;;3.72;;
33926;SDS011;20485;50.992;5.550;2023-05-18T10:38:29;19.73;;;4.70;;
33926;SDS011;20485;50.992;5.550;2023-05-18T10:40:57;13.90;;;4.40;;
33926;SDS011;20485;50.992;5.550;2023-05-18T10:43:25;11.70;;;4.00;;
33926;SDS011;20485;50.992;5.550;2023-05-18T10:45:56;24.38;;;4.60;;
33926;SDS011;20485;50.992;5.550;2023-05-18T10:48:26;15.35;;;5.25;;
33926;SDS011;20485;50.992;5.550;2023-05-18T10:50:54;13.05;;;4.45;;
33926;SDS011;20485;50.992;5.550;2023-05-18T10:53:22;13.30;;;4.10;;
33926;SDS011;20485;50.992;5.550;2023-05-18T10:55:54;20.95;;;4.85;;
33926;SDS011;20485;50.992;5.550;2023-05-18T10:58:26;13.88;;;4.50;;
33926;SDS011;20485;50.992;5.550;2023-05-18T11:00:57;11.85;;;4.18;;
33926;SDS011;20485;50.992;5.550;2023-05-18T11:03:25;11.80;;;4.00;;
33926;SDS011;20485;50.992;5.550;2023-05-18T11:06:10;14.70;;;3.80;;
33926;SDS011;20485;50.992;5.550;2023-05-18T11:08:43;11.50;;;3.80;;
33926;SDS011;20485;50.992;5.550;2023-05-18T11:11:23;14.43;;;4.38;;
33926;SDS011;20485;50.992;5.550;2023-05-18T11:13:52;15.27;;;4.00;;
33926;SDS011;20485;50.992;5.550;2023-05-18T11:16:18;9.30;;;3.83;;
33926;SDS011;20485;50.992;5.550;2023-05-18T11:18:45;12.43;;;3.60;;
33926;SDS011;20485;50.992;5.550;2023-05-18T11:26:45;14.93;;;3.83;;
33926;SDS011;20485;50.992;5.550;2023-05-18T11:32:00;12.80;;;3.30;;
33926;SDS011;20485;50.992;5.550;2023-05-18T11:37:01;17.83;;;3.58;;
33926;SDS011;20485;50.992;5.550;2023-05-18T11:39:27;14.85;;;3.55;;
33926;SDS011;20485;50.992;5.550;2023-05-18T11:41:59;17.13;;;4.30;;
33926;SDS011;20485;50.992;5.550;2023-05-18T11:44:29;20.58;;;4.57;;
33926;SDS011;20485;50.992;5.550;2023-05-18T11:47:09;13.85;;;4.25;;
33926;SDS011;20485;50.992;5.550;2023-05-18T11:49:43;14.02;;;3.97;;
33926;SDS011;20485;50.992;5.550;2023-05-18T11:54:38;12.38;;;3.80;;
33926;SDS011;20485;50.992;5.550;2023-05-18T11:57:06;12.05;;;4.10;;
33926;SDS011;20485;50.992;5.550;2023-05-18T11:59:33;14.38;;;4.13;;
33926;SDS011;20485;50.992;5.550;2023-05-18T12:02:02;15.55;;;4.72;;
33926;SDS011;20485;50.992;5.550;2023-05-18T12:04:29;16.48;;;4.25;;
33926;SDS011;20485;50.992;5.550;2023-05-18T12:06:57;18.77;;;4.93;;
33926;SDS011;20485;50.992;5.550;2023-05-18T12:09:24;10.93;;;4.55;;
33926;SDS011;20485;50.992;5.550;2023-05-18T12:11:50;13.20;;;3.88;;
33926;SDS011;20485;50.992;5.550;2023-05-18T12:14:20;15.18;;;4.30;;
33926;SDS011;20485;50.992;5.550;2023-05-18T12:16:47;10.90;;;3.88;;
33926;SDS011;20485;50.992;5.550;2023-05-18T12:19:13;9.98;;;4.18;;
33926;SDS011;20485;50.992;5.550;2023-05-18T12:21:41;16.73;;;4.50;;
33926;SDS011;20485;50.992;5.550;2023-05-18T12:24:06;15.90;;;3.92;;
33926;SDS011;20485;50.992;5.550;2023-05-18T12:26:32;9.75;;;4.05;;
33926;SDS011;20485;50.992;5.550;2023-05-18T12:28:58;10.32;;;3.70;;
33926;SDS011;20485;50.992;5.550;2023-05-18T12:31:26;13.75;;;4.35;;
33926;SDS011;20485;50.992;5.550;2023-05-18T12:33:54;13.15;;;3.85;;
33926;SDS011;20485;50.992;5.550;2023-05-18T12:36:20;11.70;;;3.80;;
33926;SDS011;20485;50.992;5.550;2023-05-18T12:38:56;10.57;;;4.05;;
33926;SDS011;20485;50.992;5.550;2023-05-18T12:41:32;17.02;;;4.22;;
33926;SDS011;20485;50.992;5.550;2023-05-18T12:43:58;17.02;;;4.72;;
33926;SDS011;20485;50.992;5.550;2023-05-18T12:46:24;15.25;;;4.53;;
33926;SDS011;20485;50.992;5.550;2023-05-18T12:48:56;11.15;;;4.47;;
33926;SDS011;20485;50.992;5.550;2023-05-18T12:51:30;16.80;;;5.03;;
33926;SDS011;20485;50.992;5.550;2023-05-18T12:54:02;15.48;;;4.32;;
33926;SDS011;20485;50.992;5.550;2023-05-18T12:56:49;10.73;;;3.90;;
33926;SDS011;20485;50.992;5.550;2023-05-18T12:59:25;13.25;;;3.65;;
33926;SDS011;20485;50.992;5.550;2023-05-18T13:01:55;8.93;;;3.58;;
33926;SDS011;20485;50.992;5.550;2023-05-18T13:04:22;13.82;;;3.95;;
33926;SDS011;20485;50.992;5.550;2023-05-18T13:06:48;14.70;;;4.60;;
33926;SDS011;20485;50.992;5.550;2023-05-18T13:09:14;17.30;;;5.15;;
33926;SDS011;20485;50.992;5.550;2023-05-18T13:11:45;16.58;;;3.42;;
33926;SDS011;20485;50.992;5.550;2023-05-18T13:14:12;9.82;;;3.33;;
33926;SDS011;20485;50.992;5.550;2023-05-18T13:16:38;17.55;;;4.78;;
33926;SDS011;20485;50.992;5.550;2023-05-18T13:19:08;11.50;;;3.67;;
33926;SDS011;20485;50.992;5.550;2023-05-18T13:21:35;11.85;;;4.22;;
33926;SDS011;20485;50.992;5.550;2023-05-18T13:24:01;12.65;;;3.95;;
33926;SDS011;20485;50.992;5.550;2023-05-18T13:26:29;11.80;;;4.45;;
33926;SDS011;20485;50.992;5.550;2023-05-18T13:28:55;11.00;;;4.38;;
33926;SDS011;20485;50.992;5.550;2023-05-18T13:31:21;9.30;;;3.92;;
33926;SDS011;20485;50.992;5.550;2023-05-18T13:33:48;16.10;;;4.60;;
33926;SDS011;20485;50.992;5.550;2023-05-18T13:36:14;14.05;;;4.03;;
33926;SDS011;20485;50.992;5.550;2023-05-18T13:38:40;14.77;;;4.40;;
33926;SDS011;20485;50.992;5.550;2023-05-18T13:41:07;9.40;;;3.88;;
33926;SDS011;20485;50.992;5.550;2023-05-18T13:43:35;11.93;;;3.67;;
33926;SDS011;20485;50.992;5.550;2023-05-18T13:46:03;12.50;;;3.95;;
33926;SDS011;20485;50.992;5.550;2023-05-18T13:48:28;10.00;;;3.45;;
33926;SDS011;20485;50.992;5.550;2023-05-18T13:50:54;21.13;;;4.28;;
33926;SDS011;20485;50.992;5.550;2023-05-18T13:53:20;8.65;;;3.20;;
33926;SDS011;20485;50.992;5.550;2023-05-18T13:55:47;14.95;;;4.00;;
33926;SDS011;20485;50.992;5.550;2023-05-18T13:58:13;14.15;;;4.05;;
33926;SDS011;20485;50.992;5.550;2023-05-18T14:00:38;12.95;;;3.50;;
33926;SDS011;20485;50.992;5.550;2023-05-18T14:03:05;16.42;;;3.92;;
33926;SDS011;20485;50.992;5.550;2023-05-18T14:05:31;14.30;;;4.97;;
33926;SDS011;20485;50.992;5.550;2023-05-18T14:07:57;14.90;;;3.92;;
33926;SDS011;20485;50.992;5.550;2023-05-18T14:10:22;11.68;;;3.70;;
33926;SDS011;20485;50.992;5.550;2023-05-18T14:12:48;10.38;;;3.38;;
33926;SDS011;20485;50.992;5.550;2023-05-18T14:15:14;12.70;;;3.70;;
33926;SDS011;20485;50.992;5.550;2023-05-18T14:17:41;14.13;;;3.47;;
33926;SDS011;20485;50.992;5.550;2023-05-18T14:20:08;10.98;;;3.92;;
33926;SDS011;20485;50.992;5.550;2023-05-18T14:22:34;10.15;;;3.58;;
33926;SDS011;20485;50.992;5.550;2023-05-18T14:25:00;11.70;;;3.78;;
33926;SDS011;20485;50.992;5.550;2023-05-18T14:27:26;14.27;;;3.75;;
33926;SDS011;20485;50.992;5.550;2023-05-18T14:29:52;13.93;;;3.05;;
33926;SDS011;20485;50.992;5.550;2023-05-18T14:32:18;11.18;;;3.38;;
33926;SDS011;20485;50.992;5.550;2023-05-18T14:34:47;18.80;;;3.95;;
33926;SDS011;20485;50.992;5.550;2023-05-18T14:37:16;10.50;;;3.05;;
33926;SDS011;20485;50.992;5.550;2023-05-18T14:39:42;11.30;;;3.10;;
33926;SDS011;20485;50.992;5.550;2023-05-18T14:42:07;10.50;;;3.75;;
33926;SDS011;20485;50.992;5.550;2023-05-18T14:44:33;13.63;;;3.63;;
33926;SDS011;20485;50.992;5.550;2023-05-18T14:46:59;14.30;;;3.70;;
33926;SDS011;20485;50.992;5.550;2023-05-18T14:49:25;13.38;;;3.65;;
33926;SDS011;20485;50.992;5.550;2023-05-18T14:51:51;11.07;;;3.08;;
33926;SDS011;20485;50.992;5.550;2023-05-18T14:54:16;10.93;;;3.00;;
33926;SDS011;20485;50.992;5.550;2023-05-18T14:56:43;13.52;;;4.10;;
33926;SDS011;20485;50.992;5.550;2023-05-18T14:59:09;12.68;;;4.32;;
33926;SDS011;20485;50.992;5.550;2023-05-18T15:01:35;12.18;;;3.63;;
33926;SDS011;20485;50.992;5.550;2023-05-18T15:04:00;17.70;;;3.60;;